Time;durP1;ratioP1;P1;durP2;ratioP2;P2;SDS_P1;SDS_P2;PMS_P1;PMS_P2;Temp;Humidity;BMP_temperature;BMP_pressure;BME280_temperature;BME280_humidity;BME280_pressure;Samples;Min_cycle;Max_cycle;Signal;HPM_P1;HPM_P2
2021/08/18 00:00:31;;;;;;;41.05;22.90;;;29.10;91.90;;;;;;5065277;28;20024;-56
2021/08/18 00:02:57;;;;;;;36.65;20.77;;;29.10;92.00;;;;;;5064941;28;20028;-57
2021/08/18 00:05:24;;;;;;;25.83;16.58;;;29.10;91.80;;;;;;5065152;28;20021;-47
2021/08/18 00:07:51;;;;;;;18.23;11.05;;;29.00;91.70;;;;;;5074602;28;20017;-49
2021/08/18 00:10:17;;;;;;;16.63;8.38;;;29.00;91.70;;;;;;5072007;28;20028;-52
2021/08/18 00:12:44;;;;;;;9.23;6.30;;;29.00;91.60;;;;;;5067194;28;20023;-55
2021/08/18 00:15:14;;;;;;;8.05;5.18;;;28.90;91.60;;;;;;5063781;28;20302;-52
2021/08/18 00:17:42;;;;;;;6.35;3.83;;;28.90;91.70;;;;;;5064687;28;20017;-51
2021/08/18 00:20:09;;;;;;;10.18;4.05;;;28.90;91.80;;;;;;5064278;28;20020;-52
2021/08/18 00:22:36;;;;;;;9.70;3.70;;;28.90;91.70;;;;;;5063017;28;20027;-53
2021/08/18 00:25:04;;;;;;;7.68;3.65;;;28.90;91.50;;;;;;5064407;28;20032;-52
2021/08/18 00:27:31;;;;;;;6.32;2.78;;;28.80;91.40;;;;;;5071135;28;20024;-51
2021/08/18 00:29:57;;;;;;;7.63;3.10;;;28.80;91.40;;;;;;5082841;28;20091;-52
2021/08/18 00:32:25;;;;;;;8.50;3.40;;;28.80;91.40;;;;;;5084275;28;20028;-55
2021/08/18 00:34:51;;;;;;;9.45;2.95;;;28.70;91.60;;;;;;5084031;28;20047;-62
2021/08/18 00:37:18;;;;;;;8.85;2.90;;;28.70;91.60;;;;;;5083887;28;20087;-57
2021/08/18 00:39:45;;;;;;;6.93;2.92;;;28.70;91.70;;;;;;5084344;28;20422;-60
2021/08/18 00:42:12;;;;;;;8.18;3.28;;;28.70;91.80;;;;;;5083823;28;20021;-58
2021/08/18 00:44:39;;;;;;;6.93;2.70;;;28.70;91.90;;;;;;5084376;28;20301;-58
2021/08/18 00:47:07;;;;;;;11.70;2.95;;;28.70;91.80;;;;;;5083916;28;20036;-53
2021/08/18 00:49:34;;;;;;;7.63;2.80;;;28.70;91.80;;;;;;5084280;28;20024;-50
2021/08/18 00:52:02;;;;;;;12.02;3.40;;;28.70;91.90;;;;;;5082597;28;20336;-60
2021/08/18 00:54:29;;;;;;;8.82;2.78;;;28.60;91.90;;;;;;5084270;28;20078;-52
2021/08/18 00:56:56;;;;;;;4.88;3.00;;;28.60;92.00;;;;;;5082285;28;20024;-58
2021/08/18 00:59:26;;;;;;;5.75;2.53;;;28.70;91.90;;;;;;5082233;28;20069;-61
2021/08/18 01:01:53;;;;;;;7.82;2.92;;;28.60;91.80;;;;;;5082393;28;20083;-53
2021/08/18 01:04:20;;;;;;;15.40;4.03;;;28.60;91.90;;;;;;5083385;28;20029;-57
2021/08/18 01:06:47;;;;;;;5.65;3.20;;;28.60;91.80;;;;;;5083173;28;20070;-57
2021/08/18 01:09:18;;;;;;;8.57;3.03;;;28.60;91.90;;;;;;5084136;28;20048;-63
2021/08/18 01:11:48;;;;;;;6.30;2.95;;;28.60;91.90;;;;;;5083931;28;20087;-63
2021/08/18 01:14:17;;;;;;;7.03;3.95;;;28.50;91.80;;;;;;5083567;28;20070;-63
2021/08/18 01:16:46;;;;;;;9.80;4.80;;;28.50;91.90;;;;;;5083672;28;20044;-53
2021/08/18 01:19:19;;;;;;;12.07;4.43;;;28.50;91.80;;;;;;5083554;28;20058;-56
2021/08/18 01:21:47;;;;;;;15.52;4.28;;;28.50;91.70;;;;;;5082586;28;20239;-54
2021/08/18 01:24:15;;;;;;;19.80;5.00;;;28.50;92.10;;;;;;5083556;28;20331;-48
2021/08/18 01:26:42;;;;;;;10.02;4.32;;;28.50;91.80;;;;;;5083300;28;20025;-60
2021/08/18 01:29:09;;;;;;;15.80;5.00;;;28.50;91.90;;;;;;5083389;28;20251;-51
2021/08/18 01:31:35;;;;;;;22.85;5.88;;;28.40;91.80;;;;;;5083014;28;20065;-50
2021/08/18 01:34:05;;;;;;;24.73;4.47;;;28.40;91.90;;;;;;5072694;28;20056;-53
2021/08/18 01:36:33;;;;;;;14.02;3.72;;;28.30;92.00;;;;;;5066826;28;20025;-50
2021/08/18 01:39:08;;;;;;;17.92;4.38;;;28.30;92.10;;;;;;5067715;28;20028;-53
2021/08/18 01:41:36;;;;;;;25.65;4.53;;;28.30;92.30;;;;;;5067379;28;20025;-55
2021/08/18 01:44:03;;;;;;;16.83;4.00;;;28.30;92.30;;;;;;5067681;28;20021;-55
2021/08/18 01:46:30;;;;;;;24.52;3.90;;;28.30;92.20;;;;;;5067618;28;20249;-50
2021/08/18 01:48:57;;;;;;;13.88;3.78;;;28.20;92.50;;;;;;5066222;28;20025;-52
2021/08/18 01:51:26;;;;;;;11.23;3.40;;;28.20;92.40;;;;;;5067501;28;20024;-54
2021/08/18 01:53:53;;;;;;;15.27;4.55;;;28.20;92.40;;;;;;5067436;28;20043;-52
2021/08/18 01:56:22;;;;;;;60.92;7.72;;;28.20;92.50;;;;;;5067052;28;20025;-55
2021/08/18 01:58:49;;;;;;;26.08;6.25;;;28.20;92.60;;;;;;5067347;28;20028;-47
2021/08/18 02:01:18;;;;;;;22.90;4.95;;;28.20;92.60;;;;;;5067452;28;20031;-47
2021/08/18 02:03:45;;;;;;;24.20;4.78;;;28.10;92.80;;;;;;5067059;28;20345;-50
2021/08/18 02:06:11;;;;;;;12.40;4.55;;;28.10;92.90;;;;;;5067091;28;20157;-48
2021/08/18 02:08:38;;;;;;;9.35;3.47;;;28.10;92.90;;;;;;5066867;28;20052;-54
2021/08/18 02:11:05;;;;;;;8.43;4.63;;;28.10;92.90;;;;;;5066856;28;20094;-51
2021/08/18 02:13:33;;;;;;;10.68;4.15;;;28.10;93.00;;;;;;5066833;28;20020;-46
2021/08/18 02:16:00;;;;;;;10.93;4.32;;;28.10;93.00;;;;;;5066690;28;20045;-54
2021/08/18 02:18:28;;;;;;;9.27;4.15;;;28.10;93.10;;;;;;5067192;28;20017;-47
2021/08/18 02:20:55;;;;;;;8.02;4.00;;;28.10;93.20;;;;;;5067225;28;20083;-53
2021/08/18 02:23:22;;;;;;;6.70;3.58;;;28.10;93.30;;;;;;5066719;28;20089;-47
2021/08/18 02:25:51;;;;;;;9.98;3.97;;;28.10;93.40;;;;;;5065878;28;20075;-56
2021/08/18 02:28:18;;;;;;;8.60;4.00;;;28.10;93.60;;;;;;5066563;28;20021;-56
2021/08/18 02:30:45;;;;;;;7.68;3.95;;;28.10;93.60;;;;;;5067071;28;20029;-51
2021/08/18 02:33:12;;;;;;;6.93;3.35;;;28.00;93.90;;;;;;5066349;28;20512;-51
2021/08/18 02:35:39;;;;;;;7.90;4.00;;;28.00;93.70;;;;;;5066857;28;20029;-47
2021/08/18 02:38:07;;;;;;;8.00;3.35;;;28.10;93.80;;;;;;5066277;28;20306;-57
2021/08/18 02:40:34;;;;;;;10.02;3.92;;;28.10;93.90;;;;;;5066850;28;20036;-53
2021/08/18 02:43:02;;;;;;;9.15;3.53;;;28.00;93.90;;;;;;5066178;28;20024;-61
2021/08/18 02:45:30;;;;;;;8.90;3.38;;;28.00;93.90;;;;;;5065377;28;20079;-51
2021/08/18 02:47:57;;;;;;;11.52;3.47;;;27.90;93.70;;;;;;5065276;28;20325;-51
2021/08/18 02:50:26;;;;;;;6.40;3.50;;;28.00;93.70;;;;;;5066707;28;20056;-54
2021/08/18 02:52:53;;;;;;;13.50;4.25;;;27.90;93.80;;;;;;5066254;28;20317;-53
2021/08/18 02:55:20;;;;;;;17.70;4.22;;;27.90;93.90;;;;;;5066608;28;20028;-50
2021/08/18 02:57:47;;;;;;;10.85;4.20;;;27.90;94.00;;;;;;5066116;28;20021;-52
2021/08/18 03:00:14;;;;;;;10.10;4.50;;;27.90;94.00;;;;;;5066475;28;20025;-55
2021/08/18 03:02:41;;;;;;;16.92;4.30;;;27.90;94.00;;;;;;5066037;28;20019;-54
2021/08/18 03:05:08;;;;;;;12.38;3.88;;;27.90;94.10;;;;;;5065797;28;20240;-54
2021/08/18 03:07:35;;;;;;;11.27;3.80;;;27.90;94.30;;;;;;5065873;28;20032;-55
2021/08/18 03:10:01;;;;;;;8.55;3.35;;;27.90;94.10;;;;;;5066215;28;20031;-49
2021/08/18 03:12:28;;;;;;;6.53;3.30;;;27.90;94.10;;;;;;5066254;28;20032;-50
2021/08/18 03:14:54;;;;;;;9.05;3.17;;;27.90;94.00;;;;;;5065813;28;20344;-54
2021/08/18 03:17:21;;;;;;;5.47;2.90;;;27.90;93.90;;;;;;5065857;28;20048;-52
2021/08/18 03:19:49;;;;;;;7.32;3.08;;;27.90;93.90;;;;;;5065595;28;20036;-53
2021/08/18 03:22:16;;;;;;;6.32;2.40;;;27.90;93.70;;;;;;5065952;28;20274;-51
2021/08/18 03:24:43;;;;;;;8.45;2.60;;;27.90;93.80;;;;;;5073686;28;20024;-50
2021/08/18 03:27:10;;;;;;;10.68;2.47;;;27.90;93.70;;;;;;5068643;28;20027;-52
2021/08/18 03:29:37;;;;;;;8.18;2.40;;;27.90;93.50;;;;;;5071300;28;20028;-53
2021/08/18 03:32:04;;;;;;;8.68;2.03;;;27.80;93.10;;;;;;5073777;28;20380;-52
2021/08/18 03:34:30;;;;;;;7.75;2.33;;;27.90;93.00;;;;;;5081067;28;20024;-55
2021/08/18 03:36:57;;;;;;;8.57;2.25;;;27.90;92.80;;;;;;5078303;28;20352;-50
2021/08/18 03:39:24;;;;;;;7.45;2.45;;;27.90;92.70;;;;;;5075744;28;20020;-50
2021/08/18 03:41:50;;;;;;;6.28;1.90;;;27.90;92.60;;;;;;5075022;28;20204;-53
2021/08/18 03:44:17;;;;;;;11.07;2.33;;;27.90;92.60;;;;;;5076169;28;20035;-56
2021/08/18 03:46:43;;;;;;;6.20;2.25;;;27.90;92.50;;;;;;5074985;28;20021;-50
2021/08/18 03:49:10;;;;;;;5.53;1.83;;;27.80;92.40;;;;;;5074004;28;20261;-56
2021/08/18 03:51:37;;;;;;;7.22;2.10;;;27.90;92.40;;;;;;5075644;28;20036;-51
2021/08/18 03:54:03;;;;;;;9.82;1.80;;;27.80;92.20;;;;;;5073630;28;20032;-52
2021/08/18 03:56:30;;;;;;;5.05;1.67;;;27.80;92.30;;;;;;5074366;28;20023;-57
2021/08/18 03:58:56;;;;;;;6.55;1.83;;;27.80;92.20;;;;;;5074589;28;20035;-52
2021/08/18 04:01:23;;;;;;;5.80;1.50;;;27.80;92.20;;;;;;5073330;28;20201;-54
2021/08/18 04:03:50;;;;;;;3.10;1.50;;;27.80;92.20;;;;;;5074360;28;20016;-52
2021/08/18 04:06:16;;;;;;;7.18;1.70;;;27.80;92.20;;;;;;5075181;28;20051;-49
2021/08/18 04:08:43;;;;;;;5.60;1.75;;;27.80;92.20;;;;;;5072282;28;20309;-47
2021/08/18 04:11:11;;;;;;;6.10;1.38;;;27.80;92.10;;;;;;5076002;28;20021;-56
2021/08/18 04:13:37;;;;;;;8.50;1.80;;;27.80;92.10;;;;;;5070908;28;20083;-50
2021/08/18 04:16:04;;;;;;;3.28;1.38;;;27.70;92.10;;;;;;5064398;28;20036;-50
2021/08/18 04:18:31;;;;;;;4.35;1.27;;;27.80;92.20;;;;;;5064627;28;20100;-48
2021/08/18 04:20:57;;;;;;;3.15;1.60;;;27.70;92.10;;;;;;5066073;28;20086;-50
2021/08/18 04:23:24;;;;;;;5.38;1.25;;;27.70;92.10;;;;;;5073313;28;20021;-51
2021/08/18 04:25:51;;;;;;;6.32;1.55;;;27.70;92.30;;;;;;5075226;28;20131;-49
2021/08/18 04:28:17;;;;;;;5.22;1.70;;;27.70;92.30;;;;;;5074032;28;20016;-53
2021/08/18 04:30:44;;;;;;;5.13;1.48;;;27.70;92.40;;;;;;5073800;28;20020;-54
2021/08/18 04:33:10;;;;;;;4.47;1.50;;;27.70;92.40;;;;;;5072438;28;20033;-55
2021/08/18 04:35:37;;;;;;;6.75;1.65;;;27.70;92.50;;;;;;5064773;28;20025;-52
2021/08/18 04:38:04;;;;;;;8.02;1.50;;;27.70;92.60;;;;;;5064367;28;20025;-52
2021/08/18 04:40:30;;;;;;;2.55;1.10;;;27.70;92.60;;;;;;5064291;28;20028;-53
2021/08/18 04:42:58;;;;;;;3.88;1.33;;;27.70;92.60;;;;;;5072972;28;20110;-51
2021/08/18 04:45:25;;;;;;;6.18;1.50;;;27.70;92.70;;;;;;5071196;28;20248;-55
2021/08/18 04:47:51;;;;;;;4.28;1.45;;;27.60;92.60;;;;;;5068683;28;20016;-48
2021/08/18 04:50:18;;;;;;;8.40;1.45;;;27.60;92.80;;;;;;5073269;28;20093;-55
2021/08/18 04:52:45;;;;;;;4.03;1.15;;;27.60;92.80;;;;;;5072271;28;20012;-54
2021/08/18 04:55:15;;;;;;;6.25;1.60;;;27.60;92.90;;;;;;5071884;28;20021;-49
2021/08/18 04:57:42;;;;;;;5.70;1.20;;;27.60;92.90;;;;;;5074755;28;20017;-52
2021/08/18 05:00:09;;;;;;;4.28;1.20;;;27.60;92.90;;;;;;5084387;28;20024;-54
2021/08/18 05:02:38;;;;;;;4.70;1.65;;;27.50;93.00;;;;;;5083954;28;20032;-54
2021/08/18 05:05:05;;;;;;;4.45;1.58;;;27.50;93.00;;;;;;5081030;28;20025;-50
2021/08/18 05:07:32;;;;;;;6.95;1.63;;;27.50;93.10;;;;;;5080992;28;20023;-51
2021/08/18 05:09:59;;;;;;;6.53;1.65;;;27.50;93.30;;;;;;5083212;28;20025;-55
2021/08/18 05:12:26;;;;;;;5.65;1.50;;;27.50;93.30;;;;;;5084012;28;20051;-53
2021/08/18 05:14:54;;;;;;;4.57;1.42;;;27.40;93.20;;;;;;5083921;28;20052;-47
2021/08/18 05:17:21;;;;;;;4.35;1.33;;;27.40;93.20;;;;;;5083727;28;20419;-53
2021/08/18 05:19:47;;;;;;;6.65;1.75;;;27.40;93.20;;;;;;5084163;28;20204;-52
2021/08/18 05:22:14;;;;;;;5.20;1.60;;;27.40;93.20;;;;;;5083874;28;20076;-52
2021/08/18 05:24:41;;;;;;;4.88;1.80;;;27.40;93.40;;;;;;5083364;28;20082;-51
2021/08/18 05:27:07;;;;;;;4.78;1.65;;;27.40;93.40;;;;;;5083864;28;20016;-50
2021/08/18 05:29:34;;;;;;;5.97;1.75;;;27.40;93.30;;;;;;5083974;28;20020;-48
2021/08/18 05:32:01;;;;;;;2.72;1.60;;;27.40;93.50;;;;;;5082534;28;20301;-47
2021/08/18 05:34:28;;;;;;;8.43;1.65;;;27.30;93.50;;;;;;5083690;28;20221;-54
2021/08/18 05:36:55;;;;;;;5.15;1.90;;;27.30;93.40;;;;;;5083741;28;20216;-49
2021/08/18 05:39:22;;;;;;;5.13;1.70;;;27.30;93.50;;;;;;5083369;28;20087;-56
2021/08/18 05:41:48;;;;;;;5.55;1.67;;;27.30;93.50;;;;;;5083696;28;20016;-50
2021/08/18 05:44:16;;;;;;;5.80;1.60;;;27.30;93.50;;;;;;5083912;28;20021;-53
2021/08/18 05:46:43;;;;;;;7.88;1.85;;;27.30;93.50;;;;;;5083450;28;20016;-51
2021/08/18 05:49:09;;;;;;;5.22;1.65;;;27.30;93.50;;;;;;5083875;28;20025;-58
2021/08/18 05:51:36;;;;;;;4.40;1.30;;;27.30;93.40;;;;;;5083627;28;20028;-49
2021/08/18 05:54:02;;;;;;;6.53;1.63;;;27.30;93.40;;;;;;5083129;28;20024;-50
2021/08/18 05:56:29;;;;;;;5.15;1.60;;;27.30;93.40;;;;;;5083519;28;20083;-51
2021/08/18 05:58:55;;;;;;;5.28;1.70;;;27.30;93.30;;;;;;5083546;28;20321;-51
2021/08/18 06:01:22;;;;;;;4.82;1.52;;;27.20;93.20;;;;;;5083390;28;20301;-51
2021/08/18 06:03:49;;;;;;;7.28;1.60;;;27.30;93.10;;;;;;5083464;28;20027;-50
2021/08/18 06:06:16;;;;;;;5.28;1.58;;;27.30;93.10;;;;;;5083296;28;20021;-53
2021/08/18 06:08:43;;;;;;;6.22;1.63;;;27.30;93.20;;;;;;5082901;28;20052;-48
2021/08/18 06:11:10;;;;;;;4.65;1.35;;;27.20;93.20;;;;;;5083435;28;20028;-56
2021/08/18 06:13:37;;;;;;;4.88;1.60;;;27.20;93.20;;;;;;5082229;28;20043;-49
2021/08/18 06:16:04;;;;;;;5.53;1.63;;;27.20;93.20;;;;;;5082961;28;20048;-51
2021/08/18 06:18:30;;;;;;;5.00;1.45;;;27.20;93.10;;;;;;5083384;28;20020;-52
2021/08/18 06:20:57;;;;;;;5.00;1.50;;;27.20;93.30;;;;;;5085513;28;20028;-52
2021/08/18 06:23:26;;;;;;;4.63;1.35;;;27.20;93.00;;;;;;5086423;28;20332;-53
2021/08/18 06:25:54;;;;;;;4.50;1.80;;;27.20;93.10;;;;;;5087352;28;20221;-53
2021/08/18 06:28:21;;;;;;;4.18;1.70;;;27.20;93.20;;;;;;5086891;28;20025;-51
2021/08/18 06:30:48;;;;;;;7.28;2.38;;;27.10;93.30;;;;;;5087234;28;20200;-52
2021/08/18 06:33:14;;;;;;;5.82;2.40;;;27.20;93.50;;;;;;5086796;28;20042;-51
2021/08/18 06:35:41;;;;;;;11.82;2.95;;;27.10;93.70;;;;;;5087101;28;20025;-53
2021/08/18 06:38:08;;;;;;;14.30;2.92;;;27.10;94.10;;;;;;5086342;28;20218;-63
2021/08/18 06:40:35;;;;;;;9.00;2.42;;;27.10;94.40;;;;;;5087007;28;20020;-61
2021/08/18 06:43:01;;;;;;;13.65;2.80;;;27.00;94.70;;;;;;5085543;28;20070;-53
2021/08/18 06:45:29;;;;;;;8.95;2.60;;;26.90;94.80;;;;;;5086950;28;20264;-56
2021/08/18 06:47:56;;;;;;;7.20;2.15;;;26.80;95.00;;;;;;5086544;28;20086;-48
2021/08/18 06:50:23;;;;;;;9.57;2.60;;;26.80;95.00;;;;;;5086834;28;20025;-51
2021/08/18 06:52:49;;;;;;;10.98;2.60;;;26.80;95.20;;;;;;5086058;28;20308;-53
2021/08/18 06:55:17;;;;;;;7.97;1.88;;;26.80;95.00;;;;;;5086841;28;20032;-56
2021/08/18 06:57:43;;;;;;;8.63;2.40;;;26.80;95.00;;;;;;5086364;28;20028;-54
2021/08/18 07:00:11;;;;;;;7.40;2.00;;;26.80;95.00;;;;;;5086566;28;20054;-56
2021/08/18 07:02:51;;;;;;;11.68;2.22;;;26.80;95.00;;;;;;5085820;28;20036;-55
2021/08/18 07:05:20;;;;;;;7.43;1.80;;;26.80;94.70;;;;;;5086730;28;20031;-48
2021/08/18 07:07:46;;;;;;;6.18;1.63;;;26.70;94.60;;;;;;5086019;28;20023;-57
2021/08/18 07:10:15;;;;;;;5.90;1.52;;;26.70;94.60;;;;;;5086508;28;20023;-53
2021/08/18 07:12:43;;;;;;;8.13;1.63;;;26.70;94.60;;;;;;5085687;28;20028;-49
2021/08/18 07:15:10;;;;;;;6.45;1.77;;;26.60;94.70;;;;;;5084750;28;20075;-51
2021/08/18 07:17:37;;;;;;;6.15;1.45;;;26.70;94.70;;;;;;5085991;28;20044;-49
2021/08/18 07:20:04;;;;;;;5.70;1.40;;;26.60;94.60;;;;;;5086333;28;20186;-48
2021/08/18 07:22:30;;;;;;;10.50;1.92;;;26.70;94.60;;;;;;5085774;28;20367;-49
2021/08/18 07:24:59;;;;;;;10.85;1.80;;;26.60;94.70;;;;;;5086125;28;20092;-55
2021/08/18 07:27:27;;;;;;;3.92;1.50;;;26.60;94.70;;;;;;5085813;28;20083;-57
2021/08/18 07:29:55;;;;;;;8.07;1.80;;;26.60;94.80;;;;;;5085812;28;20028;-52
2021/08/18 07:32:22;;;;;;;5.43;1.90;;;26.60;94.80;;;;;;5085111;28;20047;-56
2021/08/18 07:34:48;;;;;;;10.73;1.58;;;26.60;94.80;;;;;;5085920;28;20103;-61
2021/08/18 07:37:17;;;;;;;7.35;1.30;;;26.60;95.00;;;;;;5085405;28;20073;-48
2021/08/18 07:39:44;;;;;;;6.35;1.00;;;26.60;94.90;;;;;;5085784;28;20103;-57
2021/08/18 07:42:13;;;;;;;7.00;1.55;;;26.60;94.90;;;;;;5085598;28;20066;-50
2021/08/18 07:44:41;;;;;;;6.72;1.00;;;26.60;94.90;;;;;;5085578;28;20066;-49
2021/08/18 07:47:07;;;;;;;5.13;1.23;;;26.60;94.80;;;;;;5085339;28;20025;-55
2021/08/18 07:49:34;;;;;;;2.47;1.00;;;26.60;94.80;;;;;;5085526;28;20095;-52
2021/08/18 07:52:01;;;;;;;5.03;1.38;;;26.60;94.80;;;;;;5085223;28;20016;-50
2021/08/18 07:54:27;;;;;;;5.10;1.00;;;26.60;94.80;;;;;;5085619;28;20039;-53
2021/08/18 07:56:54;;;;;;;6.25;1.10;;;26.60;94.80;;;;;;5085206;28;20321;-47
2021/08/18 07:59:20;;;;;;;4.72;0.75;;;26.60;94.90;;;;;;5085209;28;20029;-50
2021/08/18 08:01:47;;;;;;;3.13;0.90;;;26.60;94.80;;;;;;5085252;28;20350;-47
2021/08/18 08:04:13;;;;;;;3.22;0.90;;;26.60;95.00;;;;;;5085333;28;20328;-51
2021/08/18 08:06:40;;;;;;;5.40;0.70;;;26.60;95.00;;;;;;5085114;28;20020;-54
2021/08/18 08:09:06;;;;;;;7.43;0.77;;;26.60;95.00;;;;;;5085280;28;20032;-50
2021/08/18 08:11:33;;;;;;;4.93;0.50;;;26.60;95.00;;;;;;5084975;28;20020;-48
2021/08/18 08:14:00;;;;;;;3.10;0.60;;;26.50;94.90;;;;;;5084860;28;20248;-51
2021/08/18 08:16:26;;;;;;;4.20;0.50;;;26.50;95.00;;;;;;5084646;28;20107;-49
2021/08/18 08:18:53;;;;;;;2.45;0.52;;;26.50;94.90;;;;;;5084784;28;20032;-52
2021/08/18 08:21:20;;;;;;;5.00;0.90;;;26.50;95.00;;;;;;5084646;28;20027;-55
2021/08/18 08:23:47;;;;;;;3.85;0.50;;;26.50;95.00;;;;;;5084610;28;20024;-57
2021/08/18 08:26:13;;;;;;;2.47;0.45;;;26.40;95.20;;;;;;5084679;28;20017;-47
2021/08/18 08:28:40;;;;;;;1.92;0.22;;;26.40;95.10;;;;;;5084367;28;20058;-55
2021/08/18 08:31:06;;;;;;;2.88;0.50;;;26.50;95.10;;;;;;5084573;28;20025;-49
2021/08/18 08:33:33;;;;;;;0.95;0.40;;;26.40;95.00;;;;;;5084410;28;20043;-52
2021/08/18 08:36:00;;;;;;;0.82;0.22;;;26.40;94.90;;;;;;5084200;28;20032;-55
2021/08/18 08:38:26;;;;;;;2.83;0.40;;;26.40;94.90;;;;;;5084419;28;20297;-52
2021/08/18 08:40:53;;;;;;;1.40;0.40;;;26.40;94.80;;;;;;5084877;28;20097;-54
2021/08/18 08:43:20;;;;;;;3.05;0.40;;;26.40;94.80;;;;;;5083772;28;20313;-55
2021/08/18 08:45:47;;;;;;;2.55;0.50;;;26.40;94.80;;;;;;5084511;28;20051;-51
2021/08/18 08:48:18;;;;;;;3.45;0.40;;;26.40;94.80;;;;;;5084255;28;20043;-52
2021/08/18 08:50:48;;;;;;;4.05;0.50;;;26.40;94.80;;;;;;5084527;28;20029;-50
2021/08/18 08:53:15;;;;;;;3.03;0.40;;;26.40;94.80;;;;;;5084404;28;20020;-53
2021/08/18 08:55:43;;;;;;;2.33;0.50;;;26.40;94.80;;;;;;5084512;28;20033;-56
2021/08/18 08:58:10;;;;;;;0.57;0.28;;;26.40;94.80;;;;;;5083960;28;20028;-51
2021/08/18 09:00:37;;;;;;;2.10;0.50;;;26.40;94.80;;;;;;5084478;28;20031;-52
2021/08/18 09:03:18;;;;;;;2.50;0.40;;;26.40;94.80;;;;;;5084056;28;20039;-49
2021/08/18 09:05:46;;;;;;;1.17;0.30;;;26.40;94.80;;;;;;5084368;28;20031;-55
2021/08/18 09:08:20;;;;;;;1.58;0.52;;;26.40;94.90;;;;;;5083977;28;20032;-53
2021/08/18 09:11:05;;;;;;;2.13;0.55;;;26.40;94.80;;;;;;5084254;28;20296;-59
2021/08/18 09:13:52;;;;;;;3.05;0.45;;;26.30;94.90;;;;;;5083987;28;20094;-51
2021/08/18 09:16:21;;;;;;;1.08;0.40;;;26.40;95.00;;;;;;5083678;28;20120;-53
2021/08/18 09:18:54;;;;;;;3.10;0.60;;;26.30;94.90;;;;;;5083703;28;20060;-54
2021/08/18 09:21:38;;;;;;;3.10;0.43;;;26.30;94.90;;;;;;5083578;28;20013;-51
2021/08/18 09:24:20;;;;;;;2.10;0.40;;;26.30;95.10;;;;;;5083640;28;20204;-50
2021/08/18 09:26:48;;;;;;;2.63;0.50;;;26.30;95.00;;;;;;5083629;28;20024;-54
2021/08/18 09:29:32;;;;;;;4.00;0.70;;;26.30;95.00;;;;;;5083689;28;20070;-51
2021/08/18 09:32:18;;;;;;;1.80;0.60;;;26.20;95.00;;;;;;5083480;28;20012;-51
2021/08/18 09:35:15;;;;;;;3.72;0.52;;;26.30;95.00;;;;;;5083715;28;20095;-52
2021/08/18 09:37:44;;;;;;;2.67;0.50;;;26.30;95.00;;;;;;5082967;28;20063;-50
2021/08/18 09:40:33;;;;;;;1.42;0.45;;;26.20;94.90;;;;;;5083782;28;20047;-54
2021/08/18 09:43:17;;;;;;;3.50;0.40;;;26.20;94.90;;;;;;5083780;28;20018;-48
2021/08/18 09:45:46;;;;;;;0.77;0.20;;;26.20;94.90;;;;;;5083696;28;20029;-51
2021/08/18 09:48:16;;;;;;;2.33;0.40;;;26.20;94.90;;;;;;5083565;28;20392;-50
2021/08/18 09:51:02;;;;;;;0.85;0.32;;;26.20;94.90;;;;;;5083648;28;20073;-59
2021/08/18 09:53:39;;;;;;;2.80;0.60;;;26.20;94.90;;;;;;5083425;28;20093;-48
2021/08/18 09:56:07;;;;;;;4.63;0.50;;;26.20;94.80;;;;;;5085882;28;20032;-55
2021/08/18 09:58:38;;;;;;;1.08;0.30;;;26.20;94.80;;;;;;5087642;28;20016;-52
2021/08/18 10:01:13;;;;;;;5.72;0.50;;;26.10;94.80;;;;;;5087415;28;20012;-54
2021/08/18 10:03:45;;;;;;;2.25;0.30;;;26.10;94.80;;;;;;5087224;28;20153;-50
2021/08/18 10:06:13;;;;;;;3.97;0.47;;;26.10;94.90;;;;;;5087214;28;20031;-54
2021/08/18 10:08:42;;;;;;;1.85;0.47;;;26.10;94.90;;;;;;5087041;28;20317;-52
2021/08/18 10:11:12;;;;;;;3.90;0.70;;;26.10;94.90;;;;;;5087207;28;20024;-58
2021/08/18 10:13:39;;;;;;;4.68;1.02;;;26.10;95.10;;;;;;5087130;28;20020;-50
2021/08/18 10:16:06;;;;;;;5.35;2.78;;;26.10;95.20;;;;;;5086909;28;20113;-55
2021/08/18 10:18:35;;;;;;;6.40;4.38;;;26.10;95.30;;;;;;5087256;28;20083;-50
2021/08/18 10:21:16;;;;;;;7.78;2.20;;;26.10;95.40;;;;;;5087126;28;20028;-50
2021/08/18 10:23:47;;;;;;;4.50;1.90;;;26.10;95.50;;;;;;5086875;28;20309;-48
2021/08/18 10:26:36;;;;;;;3.45;1.65;;;26.10;95.50;;;;;;5086825;28;20088;-55
2021/08/18 10:29:19;;;;;;;5.28;1.67;;;26.10;95.60;;;;;;5086656;28;20025;-50
2021/08/18 10:31:46;;;;;;;8.18;1.70;;;26.10;95.70;;;;;;5086802;28;20091;-60
2021/08/18 10:34:22;;;;;;;5.13;1.58;;;26.10;95.80;;;;;;5086822;28;20020;-55
2021/08/18 10:36:53;;;;;;;5.70;1.38;;;26.00;95.70;;;;;;5086718;28;20028;-51
2021/08/18 10:39:25;;;;;;;5.22;1.30;;;26.10;95.80;;;;;;5086719;28;20021;-48
2021/08/18 10:42:08;;;;;;;3.38;1.20;;;26.00;95.80;;;;;;5086756;28;20382;-49
2021/08/18 10:44:39;;;;;;;5.85;1.10;;;26.00;95.80;;;;;;5086719;28;20036;-61
2021/08/18 10:47:21;;;;;;;7.53;1.67;;;26.00;95.90;;;;;;5086668;28;20051;-53
2021/08/18 10:49:51;;;;;;;3.50;1.40;;;26.00;95.90;;;;;;5086888;28;20024;-53
2021/08/18 10:52:29;;;;;;;4.50;1.70;;;26.00;95.90;;;;;;5086537;28;20113;-52
2021/08/18 10:55:05;;;;;;;7.97;1.40;;;26.00;95.90;;;;;;5086638;28;20088;-52
2021/08/18 10:57:51;;;;;;;7.45;1.52;;;26.00;96.00;;;;;;5086339;28;20024;-54
2021/08/18 11:00:19;;;;;;;6.45;1.50;;;26.00;96.00;;;;;;5086586;28;20025;-60
2021/08/18 11:02:48;;;;;;;9.60;1.80;;;26.00;96.00;;;;;;5086428;28;20021;-54
2021/08/18 11:05:15;;;;;;;8.80;1.73;;;26.00;96.00;;;;;;5086534;28;20024;-53
2021/08/18 11:08:07;;;;;;;5.50;1.65;;;26.00;96.00;;;;;;5085210;28;20030;-47
2021/08/18 11:10:37;;;;;;;6.68;1.80;;;26.00;96.10;;;;;;5086717;28;20017;-52
2021/08/18 11:13:06;;;;;;;6.43;1.80;;;26.00;96.10;;;;;;5085922;28;20033;-51
2021/08/18 11:15:32;;;;;;;6.72;1.80;;;26.00;96.10;;;;;;5085833;28;20269;-55
2021/08/18 11:17:59;;;;;;;7.30;2.00;;;26.00;96.10;;;;;;5086157;28;20040;-60
2021/08/18 11:20:28;;;;;;;5.93;1.73;;;25.90;96.00;;;;;;5086358;28;20339;-50
2021/08/18 11:22:55;;;;;;;8.07;2.00;;;25.90;96.00;;;;;;5085964;28;20028;-55
2021/08/18 11:25:23;;;;;;;10.15;2.08;;;25.90;96.10;;;;;;5086339;28;20024;-55
2021/08/18 11:27:50;;;;;;;4.60;1.60;;;25.90;96.10;;;;;;5086398;28;20024;-57
2021/08/18 11:30:23;;;;;;;6.22;1.85;;;25.90;96.10;;;;;;5086272;28;20024;-50
2021/08/18 11:32:49;;;;;;;4.07;1.25;;;25.90;96.00;;;;;;5085734;28;20021;-55
2021/08/18 11:35:34;;;;;;;4.82;1.77;;;25.90;96.00;;;;;;5086180;28;20031;-50
2021/08/18 11:38:08;;;;;;;9.77;2.03;;;25.90;96.00;;;;;;5085737;28;20092;-48
2021/08/18 11:40:36;;;;;;;7.72;1.73;;;25.90;96.00;;;;;;5086074;28;20043;-55
2021/08/18 11:43:03;;;;;;;7.95;2.00;;;25.90;96.00;;;;;;5085557;28;20313;-57
2021/08/18 11:45:34;;;;;;;5.88;1.70;;;25.90;95.90;;;;;;5085515;28;20021;-56
2021/08/18 11:48:11;;;;;;;6.35;1.95;;;25.90;95.80;;;;;;5085457;28;20016;-56
2021/08/18 11:50:39;;;;;;;8.10;2.03;;;25.90;95.80;;;;;;5085878;28;20058;-53
2021/08/18 11:53:08;;;;;;;7.72;1.77;;;25.90;95.80;;;;;;5085341;28;20063;-58
2021/08/18 11:55:36;;;;;;;8.00;2.38;;;25.90;95.80;;;;;;5085675;28;20024;-60
2021/08/18 11:58:10;;;;;;;6.95;2.33;;;25.90;95.80;;;;;;5085174;28;20032;-57
2021/08/18 12:00:39;;;;;;;5.70;2.05;;;25.80;95.80;;;;;;5085663;28;20019;-51
2021/08/18 12:03:06;;;;;;;6.10;2.20;;;25.80;95.80;;;;;;5085151;28;20328;-55
2021/08/18 12:05:38;;;;;;;6.18;2.35;;;25.80;95.80;;;;;;5085343;28;20348;-47
2021/08/18 12:08:16;;;;;;;10.23;2.15;;;25.80;95.80;;;;;;5085017;28;20029;-60
2021/08/18 12:10:45;;;;;;;8.70;1.90;;;25.80;95.80;;;;;;5085279;28;20070;-50
2021/08/18 12:13:17;;;;;;;7.55;2.15;;;25.80;95.80;;;;;;5085028;28;20056;-54
2021/08/18 12:15:46;;;;;;;4.55;1.95;;;25.80;95.90;;;;;;5084896;28;20040;-50
2021/08/18 12:18:37;;;;;;;8.30;1.80;;;25.80;95.90;;;;;;5084553;28;20055;-48
2021/08/18 12:21:16;;;;;;;7.25;1.90;;;25.70;95.90;;;;;;5084941;28;20020;-54
2021/08/18 12:23:46;;;;;;;5.18;1.40;;;25.70;96.00;;;;;;5084739;28;20017;-56
2021/08/18 12:26:35;;;;;;;8.00;1.63;;;25.70;96.00;;;;;;5084644;28;20025;-52
2021/08/18 12:29:04;;;;;;;8.63;1.50;;;25.70;96.00;;;;;;5084647;28;20044;-50
2021/08/18 12:31:55;;;;;;;8.65;1.80;;;25.70;96.00;;;;;;5084789;28;20239;-50
2021/08/18 12:34:39;;;;;;;6.82;1.52;;;25.70;96.10;;;;;;5084744;28;20309;-53
2021/08/18 12:37:14;;;;;;;4.72;1.80;;;25.70;96.10;;;;;;5084205;28;20312;-54
2021/08/18 12:40:01;;;;;;;4.95;1.80;;;25.70;96.30;;;;;;5084594;28;20047;-53
2021/08/18 12:42:28;;;;;;;4.97;1.73;;;25.70;96.40;;;;;;5084334;28;20071;-50
2021/08/18 12:45:09;;;;;;;5.10;1.23;;;25.70;96.30;;;;;;5084669;28;20029;-53
2021/08/18 12:47:44;;;;;;;4.85;1.77;;;25.70;96.60;;;;;;5084535;28;20023;-54
2021/08/18 12:50:27;;;;;;;6.10;1.60;;;25.80;96.40;;;;;;5084809;28;20247;-52
2021/08/18 12:52:53;;;;;;;;;;;25.80;96.50;;;;;;5084601;28;20032;-53
2021/08/18 12:55:20;;;;;;;4.10;1.30;;;25.80;96.50;;;;;;5084589;28;19904;-54